Time;durP1;ratioP1;P1;durP2;ratioP2;P2;SDS_P1;SDS_P2;PMS_P1;PMS_P2;Temp;Humidity;BMP_temperature;BMP_pressure;BME280_temperature;BME280_humidity;BME280_pressure;Samples;Min_cycle;Max_cycle;Signal;HPM_P1;HPM_P2
2021/11/05 00:03:50;;;;;;;;;;;4.60;99.90;;;3.44;100.00;95529.22;10485331;28;1371;-78
2021/11/05 00:08:53;;;;;;;;;;;4.60;99.90;;;3.43;100.00;95534.72;10501793;28;1921;-78
2021/11/05 00:13:56;;;;;;;;;;;4.60;99.90;;;3.30;100.00;95538.44;10503040;28;1154;-78
2021/11/05 00:18:59;;;;;;;;;;;4.60;99.90;;;3.23;100.00;95535.13;10483151;28;1156;-78
2021/11/05 00:24:03;;;;;;;;;;;4.50;99.90;;;3.14;100.00;95541.84;10502930;28;1191;-78
2021/11/05 00:29:06;;;;;;;;;;;4.40;99.90;;;3.01;100.00;95534.13;10502935;28;1975;-77
2021/11/05 00:34:09;;;;;;;;;;;4.40;99.90;;;2.92;100.00;95546.91;10495008;28;1364;-78
2021/11/05 00:39:12;;;;;;;;;;;4.30;99.90;;;2.87;100.00;95544.97;10495032;28;749;-78
2021/11/05 00:44:15;;;;;;;;;;;4.20;99.90;;;2.75;100.00;95540.69;10494668;28;1205;-78
2021/11/05 00:49:18;;;;;;;;;;;4.10;99.90;;;2.71;100.00;95546.44;10494568;28;1930;-78
2021/11/05 00:54:21;;;;;;;;;;;4.00;99.90;;;2.75;100.00;95551.31;10522048;28;1178;-78
2021/11/05 00:59:24;;;;;;;;;;;4.00;99.90;;;2.61;100.00;95553.38;10522980;28;1157;-79
2021/11/05 01:04:26;;;;;;;;;;;4.00;99.90;;;2.64;100.00;95555.56;10499290;28;1409;-79
2021/11/05 01:09:29;;;;;;;;;;;3.90;99.90;;;2.64;100.00;95558.22;10502492;28;1909;-79
2021/11/05 01:14:32;;;;;;;;;;;3.90;99.90;;;2.51;100.00;95561.88;10500573;28;1306;-78
2021/11/05 01:19:35;;;;;;;;;;;3.90;99.90;;;2.50;100.00;95564.78;10502736;28;823;-79
2021/11/05 01:24:38;;;;;;;;;;;3.80;99.90;;;2.50;100.00;95562.94;10479643;28;1348;-79
2021/11/05 01:29:41;;;;;;;;;;;3.80;99.90;;;2.49;100.00;95557.84;10498373;28;1989;-78
2021/11/05 01:34:44;;;;;;;;;;;3.80;99.90;;;2.43;100.00;95575.47;10495839;28;1253;-78
2021/11/05 01:39:47;;;;;;;;;;;3.80;99.90;;;2.39;100.00;95569.00;10480017;28;1256;-78
2021/11/05 01:44:50;;;;;;;;;;;3.70;99.90;;;2.41;100.00;95564.28;10482316;28;1449;-78
2021/11/05 01:49:53;;;;;;;;;;;3.70;99.90;;;2.37;100.00;95573.75;10498095;28;1967;-78
2021/11/05 01:54:56;;;;;;;;;;;3.70;99.90;;;2.35;100.00;95570.47;10495575;28;1192;-79
2021/11/05 01:59:59;;;;;;;;;;;3.70;99.90;;;2.35;100.00;95573.94;10498780;28;1144;-78
2021/11/05 02:05:02;;;;;;;;;;;3.70;99.90;;;2.34;100.00;95576.81;10495367;28;1388;-77
2021/11/05 02:10:04;;;;;;;;;;;3.70;99.90;;;2.28;100.00;95572.44;10496534;28;1977;-78
2021/11/05 02:15:07;;;;;;;;;;;3.70;99.90;;;2.46;100.00;95575.03;10495033;28;1172;-79
2021/11/05 02:20:30;;;;;;;;;;;3.70;99.90;;;2.39;100.00;95583.06;10502855;28;975;-78
2021/11/05 02:25:33;;;;;;;;;;;3.70;99.90;;;2.47;100.00;95597.84;10510810;28;1307;-78
2021/11/05 02:30:50;;;;;;;;;;;3.70;99.90;;;2.37;100.00;95587.81;10507735;28;1913;-78
2021/11/05 02:35:53;;;;;;;;;;;3.70;99.90;;;2.41;100.00;95591.59;10488666;28;1228;-79
2021/11/05 02:40:56;;;;;;;;;;;3.70;99.90;;;2.40;100.00;95592.66;10486529;28;1289;-78
2021/11/05 02:46:18;;;;;;;;;;;3.70;99.90;;;2.26;100.00;95595.72;10500223;28;1310;-78
2021/11/05 02:51:24;;;;;;;;;;;3.60;99.90;;;2.21;100.00;95598.25;10486733;28;1982;-79
2021/11/05 02:56:27;;;;;;;;;;;3.60;99.90;;;2.20;100.00;95594.78;10486661;28;1358;-78
2021/11/05 03:01:30;;;;;;;;;;;3.60;99.90;;;2.10;100.00;95598.00;10485714;28;1207;-78
2021/11/05 03:06:33;;;;;;;;;;;3.40;99.90;;;2.16;100.00;95607.69;10501804;28;1314;-78
2021/11/05 03:11:36;;;;;;;;;;;3.40;99.90;;;2.13;100.00;95608.13;10503433;28;1981;-78
2021/11/05 03:16:38;;;;;;;;;;;3.50;99.90;;;2.08;100.00;95610.63;10501050;28;1137;-78
2021/11/05 03:21:41;;;;;;;;;;;3.40;99.90;;;2.16;100.00;95618.31;10503757;28;740;-77
2021/11/05 03:26:45;;;;;;;;;;;3.40;99.90;;;2.06;100.00;95617.22;10503381;28;1236;-78
2021/11/05 03:31:48;;;;;;;;;;;3.40;99.90;;;2.07;100.00;95630.25;10507776;28;1945;-78
2021/11/05 03:36:50;;;;;;;;;;;3.40;99.90;;;1.97;100.00;95627.28;10510870;28;1229;-78
2021/11/05 03:41:53;;;;;;;;;;;3.30;99.90;;;2.05;100.00;95637.63;10494452;28;1220;-78
2021/11/05 03:46:56;;;;;;;;;;;3.30;99.90;;;2.06;100.00;95643.72;10492276;28;1248;-77
2021/11/05 03:51:59;;;;;;;;;;;3.40;99.90;;;2.14;100.00;95636.25;10490554;28;1910;-78
2021/11/05 03:57:02;;;;;;;;;;;3.30;99.90;;;2.23;100.00;95644.75;10505102;28;1244;-78
2021/11/05 04:02:05;;;;;;;;;;;3.40;99.90;;;2.32;100.00;95671.75;10516796;28;832;-78
2021/11/05 04:07:08;;;;;;;;;;;3.50;99.90;;;2.37;100.00;95672.69;10515073;28;1278;-78
2021/11/05 04:12:10;;;;;;;;;;;3.60;99.90;;;2.33;100.00;95660.91;10511630;28;1914;-78
2021/11/05 04:17:14;;;;;;;;;;;3.60;99.90;;;2.29;100.00;95674.84;10509485;28;1371;-78
2021/11/05 04:22:17;;;;;;;;;;;3.50;99.90;;;2.42;100.00;95680.78;10491100;28;1106;-78
2021/11/05 04:27:20;;;;;;;;;;;3.60;99.90;;;2.56;100.00;95681.41;10503882;28;1237;-78
2021/11/05 04:32:22;;;;;;;;;;;3.60;99.90;;;2.59;100.00;95691.56;10503026;28;1910;-78
2021/11/05 04:37:25;;;;;;;;;;;3.70;99.90;;;2.59;100.00;95696.88;10504089;28;816;-78
2021/11/05 04:42:28;;;;;;;;;;;3.70;99.90;;;2.66;100.00;95697.59;10508025;28;1287;-77
2021/11/05 04:47:51;;;;;;;;;;;3.80;99.90;;;2.59;100.00;95696.06;10508015;28;927;-78
2021/11/05 04:53:14;;;;;;;;;;;3.80;99.90;;;2.35;100.00;95705.78;10502200;28;1939;-78
2021/11/05 04:58:17;;;;;;;;;;;3.70;99.90;;;2.12;100.00;95707.28;10504181;28;729;-78
2021/11/05 05:03:20;;;;;;;;;;;3.60;99.90;;;1.98;100.00;95708.47;10481707;28;1287;-78
2021/11/05 05:08:23;;;;;;;;;;;3.40;99.90;;;1.98;100.00;95713.78;10511007;28;765;-78
2021/11/05 05:13:25;;;;;;;;;;;3.30;99.90;;;1.71;100.00;95730.97;10518660;28;1953;-78
2021/11/05 05:18:28;;;;;;;;;;;3.20;99.90;;;1.58;100.00;95743.31;10517701;28;866;-78
2021/11/05 05:23:32;;;;;;;;;;;3.00;99.90;;;1.50;100.00;95742.78;10508024;28;1342;-78
2021/11/05 05:28:35;;;;;;;;;;;2.90;99.90;;;1.45;100.00;95738.13;10505999;28;1124;-78
2021/11/05 05:33:39;;;;;;;;;;;2.80;99.90;;;1.40;100.00;95745.94;10496353;28;1979;-78
2021/11/05 05:38:42;;;;;;;;;;;2.80;99.90;;;1.55;100.00;95759.66;10478052;28;1208;-78
2021/11/05 05:43:45;;;;;;;;;;;2.80;99.90;;;1.67;100.00;95766.91;10479011;28;1436;-78
2021/11/05 05:48:48;;;;;;;;;;;2.90;99.90;;;1.94;100.00;95778.84;10494542;28;749;-78
2021/11/05 05:53:51;;;;;;;;;;;3.00;99.90;;;2.18;100.00;95779.84;10479776;28;1902;-78
2021/11/05 05:58:54;;;;;;;;;;;3.20;99.90;;;2.41;100.00;95789.78;10484710;28;1258;-78
2021/11/05 06:03:59;;;;;;;;;;;3.40;99.90;;;2.46;100.00;95794.41;10504538;28;1318;-78
2021/11/05 06:09:02;;;;;;;;;;;3.50;99.90;;;2.38;100.00;95811.44;10491212;28;1375;-77
2021/11/05 06:14:05;;;;;;;;;;;3.50;99.90;;;2.21;100.00;95810.41;10523005;28;1958;-77
2021/11/05 06:19:08;;;;;;;;;;;3.50;99.90;;;2.11;100.00;95816.22;10536945;28;839;-77
2021/11/05 06:24:10;;;;;;;;;;;3.40;99.90;;;2.04;100.00;95818.94;10518539;28;1252;-77
2021/11/05 06:29:13;;;;;;;;;;;3.30;99.90;;;2.00;100.00;95828.34;10506942;28;1342;-78
2021/11/05 06:34:16;;;;;;;;;;;3.30;99.90;;;2.09;100.00;95837.63;10506685;28;1910;-77
2021/11/05 06:39:19;;;;;;;;;;;3.30;99.90;;;2.10;100.00;95841.94;10523132;28;749;-78
2021/11/05 06:44:22;;;;;;;;;;;3.30;99.90;;;2.23;100.00;95856.06;10521641;28;1286;-77
2021/11/05 06:49:25;;;;;;;;;;;3.40;99.90;;;2.29;100.00;95857.84;10499900;28;1363;-77
2021/11/05 06:54:28;;;;;;;;;;;3.50;99.90;;;2.39;100.00;95860.81;10510245;28;1887;-77
2021/11/05 06:59:31;;;;;;;;;;;3.50;99.90;;;2.50;100.00;95878.66;10509843;28;722;-77
2021/11/05 07:04:34;;;;;;;;;;;3.60;99.90;;;2.61;100.00;95885.09;10498740;28;1350;-77
2021/11/05 07:09:37;;;;;;;;;;;3.70;99.90;;;2.78;100.00;95894.06;10481490;28;1472;-77
2021/11/05 07:14:40;;;;;;;;;;;3.90;99.90;;;2.90;100.00;95902.13;10471999;28;1895;-69
2021/11/05 07:19:43;;;;;;;;;;;4.00;99.90;;;3.01;100.00;95909.34;10488237;28;801;-73
2021/11/05 07:24:46;;;;;;;;;;;5.00;99.90;;;3.28;100.00;95914.31;10470686;28;1366;-76
2021/11/05 07:29:49;;;;;;;;;;;4.80;99.90;;;3.97;100.00;95918.25;10489542;28;771;-77
2021/11/05 07:34:55;;;;;;;;;;;4.90;99.90;;;3.77;100.00;95927.34;10473625;28;1914;-76
2021/11/05 07:39:57;;;;;;;;;;;4.90;99.90;;;3.72;100.00;95945.81;10493708;28;1003;-76
2021/11/05 07:45:00;;;;;;;;;;;4.80;99.90;;;3.77;100.00;95951.28;10491184;28;1237;-75
2021/11/05 07:50:03;;;;;;;;;;;4.80;99.90;;;3.86;100.00;95966.91;10492652;28;827;-76
2021/11/05 07:55:06;;;;;;;;;;;4.90;99.90;;;3.96;100.00;95973.31;10473192;28;1918;-74
2021/11/05 08:00:09;;;;;;;;;;;5.00;99.90;;;4.04;100.00;95978.28;10475831;28;1229;-74
2021/11/05 08:05:12;;;;;;;;;;;5.10;99.90;;;4.23;100.00;95984.34;10493855;28;1232;-76
2021/11/05 08:10:20;;;;;;;;;;;5.10;99.90;;;4.36;99.64;96004.63;10505574;28;809;-77
2021/11/05 08:15:23;;;;;;;;;;;5.40;99.90;;;4.69;97.73;96006.75;10491522;28;1976;-76
2021/11/05 08:20:26;;;;;;;;;;;5.50;99.90;;;5.15;94.49;96015.78;10490017;28;816;-76
2021/11/05 08:25:30;;;;;;;;;;;5.90;99.90;;;5.11;94.70;96030.63;10487691;28;1213;-74
2021/11/05 08:30:33;;;;;;;;;;;6.10;99.90;;;4.99;94.60;96040.47;10488714;28;991;-75
2021/11/05 08:35:41;;;;;;;;;;;6.10;99.90;;;4.99;95.10;96045.81;10515167;28;1910;-75
2021/11/05 08:40:44;;;;;;;;;;;6.00;99.90;;;5.15;94.53;96055.75;10501602;28;1397;-75
2021/11/05 08:45:52;;;;;;;;;;;6.10;99.90;;;5.55;92.17;96060.38;10523281;28;1228;-74
2021/11/05 08:50:55;;;;;;;;;;;6.30;99.90;;;5.79;90.50;96066.44;10517821;28;1931;-77
2021/11/05 08:55:57;;;;;;;;;;;6.60;99.90;;;6.21;88.61;96075.03;10499608;28;1429;-76
2021/11/05 09:01:00;;;;;;;;;;;6.90;99.90;;;6.31;88.26;96080.59;10519521;28;1078;-73
2021/11/05 09:06:23;;;;;;;;;;;7.00;99.90;;;6.55;85.39;96085.78;10520833;28;1233;-76
2021/11/05 09:11:46;;;;;;;;;;;7.20;99.90;;;6.72;84.30;96092.78;10491761;28;1971;-75
2021/11/05 09:17:09;;;;;;;;;;;7.30;99.90;;;6.80;84.36;96099.59;10489210;28;1221;-76
2021/11/05 09:22:31;;;;;;;;;;;7.50;99.90;;;6.82;84.02;96102.84;10490486;28;1336;-76
2021/11/05 09:27:54;;;;;;;;;;;7.90;99.90;;;7.26;82.15;96111.06;10487237;28;918;-78
2021/11/05 09:33:19;;;;;;;;;;;8.00;99.90;;;7.41;80.45;96116.63;10492145;28;1957;-77
2021/11/05 09:38:40;;;;;;;;;;;8.30;99.90;;;7.41;80.83;96124.63;10496392;28;714;-78
2021/11/05 09:44:02;;;;;;;;;;;8.40;99.90;;;7.53;81.09;96125.34;10492174;28;1292;-75
2021/11/05 09:49:23;;;;;;;;;;;8.30;99.90;;;7.59;80.80;96129.72;10486288;28;706;-77
2021/11/05 09:54:44;;;;;;;;;;;8.40;99.90;;;7.88;79.50;96131.44;10491089;28;2143;-77
2021/11/05 10:00:06;;;;;;;;;;;8.60;99.90;;;7.75;78.94;96127.25;10491180;28;614;-75
2021/11/05 10:05:27;;;;;;;;;;;8.50;99.90;;;7.99;77.92;96138.56;10499694;28;1232;-78
2021/11/05 10:10:30;;;;;;;;;;;8.60;99.90;;;8.06;77.56;96139.19;10502343;28;1081;-78
2021/11/05 10:15:33;;;;;;;;;;;8.70;99.90;;;7.83;77.17;96134.88;10503305;28;1891;-78
2021/11/05 10:20:36;;;;;;;;;;;8.70;99.90;;;7.98;76.39;96134.25;10491037;28;1086;-76
2021/11/05 10:25:39;;;;;;;;;;;8.70;99.90;;;8.32;75.49;96137.63;10471041;28;1338;-76
2021/11/05 10:30:42;;;;;;;;;;;8.90;99.90;;;8.72;72.32;96131.13;10508960;28;792;-76
2021/11/05 10:35:45;;;;;;;;;;;9.40;99.90;;;9.06;72.24;96129.84;10510422;28;1906;-75
2021/11/05 10:41:03;;;;;;;;;;;9.60;99.90;;;9.56;68.04;96130.50;10508778;28;1082;-76
2021/11/05 10:46:06;;;;;;;;;;;10.00;99.90;;;9.47;67.16;96127.47;10475239;28;1482;-76
2021/11/05 10:51:09;;;;;;;;;;;10.20;99.90;;;9.41;67.74;96115.88;10494674;28;1117;-76
2021/11/05 10:56:12;;;;;;;;;;;10.20;99.90;;;9.70;67.87;96119.03;10493008;28;1989;-78
2021/11/05 11:01:15;;;;;;;;;;;10.40;99.90;;;9.89;67.64;96132.03;10489187;28;1511;-78
2021/11/05 11:06:18;;;;;;;;;;;10.50;99.90;;;9.43;66.67;96137.94;10512616;28;1217;-76
2021/11/05 11:11:21;;;;;;;;;;;10.50;99.90;;;8.62;70.91;96143.34;10526852;28;1144;-77
2021/11/05 11:16:24;;;;;;;;;;;10.00;99.90;;;8.83;70.43;96144.38;10493365;28;1883;-77
2021/11/05 11:21:27;;;;;;;;;;;9.70;99.90;;;8.62;71.85;96146.03;10513095;28;820;-76
2021/11/05 11:26:30;;;;;;;;;;;9.50;99.90;;;8.43;70.97;96147.44;10505795;28;1314;-77
2021/11/05 11:31:33;;;;;;;;;;;9.40;99.90;;;8.17;72.62;96156.19;10521057;28;1898;-75
2021/11/05 11:36:36;;;;;;;;;;;9.20;99.90;;;7.83;73.28;96151.75;10505819;28;1356;-78
2021/11/05 11:41:39;;;;;;;;;;;9.00;99.90;;;8.00;74.37;96156.22;10496465;28;1398;-77
2021/11/05 11:46:42;;;;;;;;;;;9.00;99.90;;;8.09;73.53;96150.22;10500024;28;1237;-77
2021/11/05 11:51:49;;;;;;;;;;;9.00;99.90;;;8.34;73.74;96148.91;10484369;28;1886;-73
2021/11/05 11:56:54;;;;;;;;;;;9.10;99.90;;;8.38;74.69;96158.09;10490108;28;1217;-74
2021/11/05 12:01:57;;;;;;;;;;;9.20;99.90;;;8.61;71.66;96163.19;10491292;28;1144;-75
2021/11/05 12:07:03;;;;;;;;;;;9.30;99.90;;;8.99;71.16;96158.75;10489607;28;1224;-73
2021/11/05 12:12:06;;;;;;;;;;;9.60;99.90;;;8.96;70.44;96153.06;10489877;28;1976;-73
2021/11/05 12:17:09;;;;;;;;;;;9.70;99.90;;;8.77;69.71;96171.38;10471116;28;1245;-76
2021/11/05 12:22:12;;;;;;;;;;;9.80;99.90;;;8.85;69.88;96173.63;10490604;28;764;-75
2021/11/05 12:27:16;;;;;;;;;;;9.70;99.90;;;9.13;67.63;96170.66;10489550;28;1248;-73
2021/11/05 12:32:19;;;;;;;;;;;9.90;99.90;;;9.13;66.46;96167.97;10489416;28;1918;-72
2021/11/05 12:37:22;;;;;;;;;;;9.90;99.90;;;8.79;63.27;96164.72;10485124;28;1316;-72
2021/11/05 12:42:25;;;;;;;;;;;9.80;99.90;;;8.81;62.41;96170.63;10486870;28;1129;-74
2021/11/05 12:47:28;;;;;;;;;;;9.80;99.90;;;9.38;60.87;96164.72;10487200;28;1126;-73
2021/11/05 12:52:31;;;;;;;;;;;10.00;99.90;;;9.12;60.19;96162.88;10490243;28;1910;-73
2021/11/05 12:57:34;;;;;;;;;;;10.10;99.90;;;9.19;60.16;96172.34;10488669;28;1086;-73
2021/11/05 13:02:37;;;;;;;;;;;10.00;99.90;;;9.47;59.57;96181.13;10486728;28;1219;-74
2021/11/05 13:07:40;;;;;;;;;;;10.20;99.90;;;9.52;58.10;96181.19;10490975;28;746;-73
2021/11/05 13:12:43;;;;;;;;;;;10.40;99.90;;;9.07;60.24;96197.69;10519914;28;1906;-74
2021/11/05 13:17:46;;;;;;;;;;;10.20;99.90;;;9.02;61.14;96195.75;10502203;28;751;-73
2021/11/05 13:22:49;;;;;;;;;;;9.90;99.90;;;8.99;62.42;96196.28;10492833;28;1192;-74
2021/11/05 13:27:52;;;;;;;;;;;9.90;99.90;;;8.84;63.56;96199.63;10488827;28;717;-76
2021/11/05 13:32:56;;;;;;;;;;;9.80;99.90;;;8.87;63.80;96198.28;10470022;28;1910;-76
2021/11/05 13:37:59;;;;;;;;;;;9.80;99.90;;;8.82;63.26;96200.91;10489760;28;1122;-75
2021/11/05 13:43:02;;;;;;;;;;;9.80;99.90;;;8.85;65.04;96211.16;10474638;28;1224;-76
2021/11/05 13:48:04;;;;;;;;;;;9.80;99.90;;;8.55;66.74;96209.72;10490407;28;1161;-77
2021/11/05 13:53:08;;;;;;;;;;;9.70;99.90;;;8.44;69.81;96226.72;10492987;28;1902;-76
2021/11/05 13:58:11;;;;;;;;;;;9.60;99.90;;;8.37;71.38;96224.25;10493380;28;851;-76
2021/11/05 14:03:14;;;;;;;;;;;9.40;99.90;;;8.06;73.06;96225.66;10491815;28;1311;-73
2021/11/05 14:08:17;;;;;;;;;;;9.30;99.90;;;7.79;75.56;96240.78;10473208;28;1101;-75
2021/11/05 14:13:20;;;;;;;;;;;9.00;99.90;;;7.55;78.79;96242.81;10490924;28;1971;-75
2021/11/05 14:18:23;;;;;;;;;;;8.80;99.90;;;7.52;79.65;96254.81;10471020;28;1371;-74
2021/11/05 14:23:26;;;;;;;;;;;8.60;99.90;;;7.38;81.02;96266.91;10478228;28;1414;-76
2021/11/05 14:28:29;;;;;;;;;;;8.50;99.90;;;7.37;82.34;96267.91;10477184;28;1377;-75
2021/11/05 14:33:32;;;;;;;;;;;8.50;99.90;;;7.31;83.28;96271.56;10495640;28;1977;-75
2021/11/05 14:38:35;;;;;;;;;;;8.50;99.90;;;7.40;84.66;96275.47;10478245;28;1362;-74
2021/11/05 14:43:38;;;;;;;;;;;8.40;99.90;;;7.10;87.26;96274.91;10493739;28;1252;-74
2021/11/05 14:48:42;;;;;;;;;;;8.40;99.90;;;7.11;88.26;96285.38;10473345;28;816;-74
2021/11/05 14:53:45;;;;;;;;;;;8.30;99.90;;;7.32;88.08;96286.56;10476851;28;1891;-73
2021/11/05 14:58:48;;;;;;;;;;;8.30;99.90;;;7.22;89.01;96281.03;10471276;28;1432;-76
2021/11/05 15:03:51;;;;;;;;;;;8.30;99.90;;;7.27;89.00;96283.81;10494623;28;1165;-74
2021/11/05 15:08:54;;;;;;;;;;;8.30;99.90;;;7.36;87.61;96289.56;10492617;28;765;-74
2021/11/05 15:13:57;;;;;;;;;;;8.40;99.90;;;7.27;89.05;96292.63;10470170;28;1922;-72
2021/11/05 15:19:00;;;;;;;;;;;8.40;99.90;;;7.09;90.67;96300.84;10489104;28;808;-74
2021/11/05 15:24:03;;;;;;;;;;;8.30;99.90;;;6.80;92.17;96308.00;10492027;28;1228;-74
2021/11/05 15:29:06;;;;;;;;;;;8.10;99.90;;;6.53;92.28;96323.75;10473026;28;1224;-73
2021/11/05 15:34:09;;;;;;;;;;;7.90;99.90;;;6.33;93.25;96324.13;10481619;28;1974;-75
2021/11/05 15:39:12;;;;;;;;;;;7.70;99.90;;;6.11;94.94;96325.75;10488029;28;772;-74
2021/11/05 15:44:15;;;;;;;;;;;7.50;99.90;;;6.12;94.11;96338.06;10489241;28;1301;-76
2021/11/05 15:49:18;;;;;;;;;;;7.40;99.90;;;6.07;94.24;96340.59;10489196;28;999;-74
2021/11/05 15:54:22;;;;;;;;;;;7.30;99.90;;;5.96;94.13;96350.22;10470428;28;1909;-73
2021/11/05 15:59:25;;;;;;;;;;;7.20;99.90;;;5.99;93.84;96355.09;10487610;28;819;-72
2021/11/05 16:04:28;;;;;;;;;;;7.20;99.90;;;6.05;94.25;96364.06;10486896;28;1299;-73
2021/11/05 16:09:32;;;;;;;;;;;7.20;99.90;;;6.11;93.16;96366.63;10489230;28;772;-72
2021/11/05 16:14:35;;;;;;;;;;;7.20;99.90;;;6.24;93.07;96378.94;10486134;28;1976;-73
2021/11/05 16:19:39;;;;;;;;;;;7.30;99.90;;;6.29;92.83;96378.22;10479845;28;1140;-73
2021/11/05 16:24:42;;;;;;;;;;;7.30;99.90;;;6.29;93.50;96392.38;10481659;28;1224;-74
2021/11/05 16:29:44;;;;;;;;;;;7.40;99.90;;;6.24;95.79;96394.94;10487089;28;802;-73
2021/11/05 16:34:47;;;;;;;;;;;7.40;99.90;;;6.26;95.67;96408.06;10485937;28;1973;-72
2021/11/05 16:39:50;;;;;;;;;;;7.30;99.90;;;6.12;97.20;96415.47;10467463;28;1208;-72
2021/11/05 16:44:53;;;;;;;;;;;7.30;99.90;;;5.99;98.92;96423.69;10487391;28;1201;-72
2021/11/05 16:49:56;;;;;;;;;;;7.20;99.90;;;5.93;100.00;96426.22;10486566;28;1144;-74
2021/11/05 16:54:59;;;;;;;;;;;7.20;99.90;;;5.94;99.66;96424.34;10469000;28;1975;-75
2021/11/05 17:00:02;;;;;;;;;;;7.10;99.90;;;5.91;100.00;96430.94;10459205;28;1204;-74
2021/11/05 17:05:05;;;;;;;;;;;7.10;99.90;;;5.88;100.00;96433.25;10468833;28;1283;-74
2021/11/05 17:10:07;;;;;;;;;;;7.00;99.90;;;5.84;100.00;96437.41;10487937;28;1066;-75
2021/11/05 17:15:11;;;;;;;;;;;7.00;99.90;;;5.80;100.00;96436.25;10487966;28;1902;-74
2021/11/05 17:20:13;;;;;;;;;;;6.90;99.90;;;5.75;100.00;96450.25;10487908;28;1058;-74
2021/11/05 17:25:16;;;;;;;;;;;6.90;99.90;;;5.66;100.00;96459.59;10466997;28;1310;-75
2021/11/05 17:30:19;;;;;;;;;;;6.80;99.90;;;5.72;100.00;96460.53;10464541;28;1046;-73
2021/11/05 17:35:22;;;;;;;;;;;6.80;99.90;;;5.77;100.00;96466.84;10465802;28;1985;-74
2021/11/05 17:40:26;;;;;;;;;;;6.80;99.90;;;5.81;100.00;96470.69;10467148;28;1515;-74
2021/11/05 17:45:29;;;;;;;;;;;6.90;99.90;;;5.88;100.00;96474.06;10483998;28;1311;-74
2021/11/05 17:50:32;;;;;;;;;;;6.90;99.90;;;6.01;100.00;96477.63;10485153;28;845;-74
2021/11/05 17:55:35;;;;;;;;;;;7.00;99.90;;;6.01;100.00;96491.78;10467655;28;1906;-73
2021/11/05 18:00:38;;;;;;;;;;;7.00;99.90;;;6.01;100.00;96486.44;10494163;28;931;-73
2021/11/05 18:05:41;;;;;;;;;;;7.00;99.90;;;6.00;100.00;96494.69;10475389;28;1312;-74
2021/11/05 18:10:44;;;;;;;;;;;7.10;99.90;;;5.97;100.00;96499.41;10493727;28;745;-74
2021/11/05 18:15:50;;;;;;;;;;;7.10;99.90;;;6.02;100.00;96501.41;10493027;28;1979;-75
2021/11/05 18:20:53;;;;;;;;;;;7.00;99.90;;;6.08;100.00;96505.84;10493707;28;923;-74
2021/11/05 18:25:56;;;;;;;;;;;7.10;99.90;;;6.05;100.00;96510.84;10491676;28;1237;-74
2021/11/05 18:31:00;;;;;;;;;;;7.10;99.90;;;6.00;100.00;96521.38;10492437;28;857;-75
2021/11/05 18:36:03;;;;;;;;;;;7.00;99.90;;;6.01;100.00;96520.34;10492289;28;1902;-74
2021/11/05 18:41:05;;;;;;;;;;;7.00;99.90;;;6.01;100.00;96528.34;10493020;28;776;-74
2021/11/05 18:46:10;;;;;;;;;;;7.00;99.90;;;5.95;100.00;96530.06;10494088;28;1291;-75
2021/11/05 18:51:13;;;;;;;;;;;7.00;99.90;;;5.83;100.00;96531.81;10491853;28;950;-74
2021/11/05 18:56:16;;;;;;;;;;;7.00;99.90;;;5.70;100.00;96538.13;10477069;28;1938;-75
2021/11/05 19:01:18;;;;;;;;;;;6.90;99.90;;;5.48;100.00;96539.66;10492720;28;816;-74
2021/11/05 19:06:21;;;;;;;;;;;6.80;99.90;;;5.15;100.00;96551.44;10474341;28;1224;-73
2021/11/05 19:11:24;;;;;;;;;;;6.60;99.90;;;4.93;100.00;96555.56;10475343;28;1179;-74
2021/11/05 19:16:27;;;;;;;;;;;6.40;99.90;;;4.85;100.00;96560.16;10490795;28;1998;-74
2021/11/05 19:21:32;;;;;;;;;;;6.10;99.90;;;4.87;100.00;96558.06;10493337;28;728;-74
2021/11/05 19:26:36;;;;;;;;;;;6.10;99.90;;;4.97;100.00;96570.91;10491100;28;1165;-71
2021/11/05 19:31:39;;;;;;;;;;;6.10;99.90;;;5.16;100.00;96569.09;10489928;28;922;-70
2021/11/05 19:36:42;;;;;;;;;;;6.20;99.90;;;5.25;100.00;96573.09;10491004;28;1975;-70
2021/11/05 19:41:45;;;;;;;;;;;6.30;99.90;;;5.33;100.00;96580.78;10490940;28;812;-73
2021/11/05 19:46:49;;;;;;;;;;;6.40;99.90;;;5.39;100.00;96574.59;10511789;28;1267;-73
2021/11/05 19:51:52;;;;;;;;;;;6.40;99.90;;;5.38;100.00;96585.47;10517835;28;1038;-73
2021/11/05 19:56:55;;;;;;;;;;;6.40;99.90;;;5.39;100.00;96590.56;10508900;28;1909;-73
2021/11/05 20:01:58;;;;;;;;;;;6.40;99.90;;;5.31;100.00;96604.19;10501294;28;725;-74
2021/11/05 20:07:22;;;;;;;;;;;6.50;99.90;;;5.30;100.00;96596.44;10491838;28;1150;-73
2021/11/05 20:12:25;;;;;;;;;;;6.40;99.90;;;5.25;100.00;96605.06;10491697;28;935;-73
2021/11/05 20:17:27;;;;;;;;;;;6.40;99.90;;;5.23;100.00;96623.16;10491661;28;1973;-74
2021/11/05 20:22:30;;;;;;;;;;;6.40;99.90;;;5.21;100.00;96619.88;10493980;28;1209;-73
2021/11/05 20:27:33;;;;;;;;;;;6.40;99.90;;;5.13;100.00;96625.50;10475310;28;1416;-72
2021/11/05 20:32:39;;;;;;;;;;;6.30;99.90;;;5.17;100.00;96633.88;10492975;28;1236;-74
2021/11/05 20:37:42;;;;;;;;;;;6.30;99.90;;;5.18;100.00;96636.31;10490937;28;1906;-73
2021/11/05 20:42:45;;;;;;;;;;;6.30;99.90;;;5.21;100.00;96651.03;10491046;28;1334;-74
2021/11/05 20:47:47;;;;;;;;;;;6.30;99.90;;;5.23;100.00;96649.81;10487417;28;995;-73
2021/11/05 20:52:51;;;;;;;;;;;6.30;99.90;;;5.26;100.00;96654.69;10494943;28;1197;-74
2021/11/05 20:57:54;;;;;;;;;;;6.30;99.90;;;5.36;100.00;96663.03;10494064;28;1973;-73
2021/11/05 21:02:57;;;;;;;;;;;6.30;99.90;;;5.40;100.00;96666.84;10495179;28;1213;-75
2021/11/05 21:08:00;;;;;;;;;;;6.40;99.90;;;5.40;100.00;96672.19;10495143;28;872;-75
2021/11/05 21:13:03;;;;;;;;;;;6.40;99.90;;;5.47;100.00;96676.66;10488734;28;1181;-74
2021/11/05 21:18:06;;;;;;;;;;;6.40;99.90;;;5.49;100.00;96685.28;10487966;28;1971;-72
2021/11/05 21:23:11;;;;;;;;;;;6.50;99.90;;;5.44;100.00;96680.59;10471419;28;1361;-72
2021/11/05 21:28:14;;;;;;;;;;;6.50;99.90;;;5.42;100.00;96686.16;10466578;28;1211;-72
2021/11/05 21:33:16;;;;;;;;;;;6.50;99.90;;;5.35;100.00;96693.38;10485551;28;1205;-72
2021/11/05 21:38:20;;;;;;;;;;;6.40;99.90;;;5.45;100.00;96697.41;10484640;28;1909;-73
2021/11/05 21:43:23;;;;;;;;;;;6.40;99.90;;;5.45;100.00;96698.22;10468168;28;1291;-72
2021/11/05 21:48:26;;;;;;;;;;;6.40;99.90;;;5.50;100.00;96690.38;10485478;28;816;-72
2021/11/05 21:53:30;;;;;;;;;;;6.50;99.90;;;5.51;100.00;96702.69;10484751;28;1204;-73
2021/11/05 21:58:33;;;;;;;;;;;6.50;99.90;;;5.55;100.00;96705.72;10472326;28;1981;-74
2021/11/05 22:03:36;;;;;;;;;;;6.50;99.90;;;5.57;100.00;96711.66;10488856;28;1205;-72
2021/11/05 22:08:39;;;;;;;;;;;6.50;99.90;;;5.53;100.00;96713.94;10473912;28;1178;-71
2021/11/05 22:13:42;;;;;;;;;;;6.60;99.90;;;5.51;100.00;96712.53;10495886;28;1197;-74
2021/11/05 22:18:45;;;;;;;;;;;6.50;99.90;;;5.57;100.00;96709.81;10487232;28;1918;-73
2021/11/05 22:23:48;;;;;;;;;;;6.60;99.90;;;5.59;100.00;96713.06;10463311;28;1349;-74
2021/11/05 22:28:51;;;;;;;;;;;6.60;99.90;;;5.63;100.00;96724.13;10485574;28;1045;-75
2021/11/05 22:33:54;;;;;;;;;;;6.60;99.90;;;5.53;100.00;96718.44;10467627;28;1369;-73
2021/11/05 22:38:57;;;;;;;;;;;6.60;99.90;;;5.56;100.00;96728.69;10466900;28;2017;-75
2021/11/05 22:44:00;;;;;;;;;;;6.60;99.90;;;5.48;100.00;96727.13;10491709;28;1217;-74
2021/11/05 22:49:06;;;;;;;;;;;6.60;99.90;;;5.46;100.00;96729.19;10492793;28;998;-75
2021/11/05 22:54:08;;;;;;;;;;;6.60;99.90;;;5.51;100.00;96728.53;10492260;28;1240;-75
2021/11/05 22:59:12;;;;;;;;;;;6.60;99.90;;;5.35;100.00;96733.38;10493881;28;1917;-75
2021/11/05 23:04:15;;;;;;;;;;;6.50;99.90;;;5.39;100.00;96739.91;10491775;28;1331;-75
2021/11/05 23:09:18;;;;;;;;;;;6.50;99.90;;;5.40;100.00;96736.19;10496980;28;1082;-75
2021/11/05 23:14:21;;;;;;;;;;;6.50;99.90;;;5.37;100.00;96733.97;10477668;28;1279;-75
2021/11/05 23:19:24;;;;;;;;;;;6.40;99.90;;;5.36;100.00;96735.00;10473712;28;1981;-77
2021/11/05 23:24:28;;;;;;;;;;;6.40;99.90;;;5.34;100.00;96737.09;10492487;28;1311;-74
2021/11/05 23:29:31;;;;;;;;;;;6.40;99.90;;;5.50;100.00;96740.25;10493037;28;769;-74
2021/11/05 23:34:34;;;;;;;;;;;6.50;99.90;;;5.50;100.00;96730.38;10489179;28;1161;-74
2021/11/05 23:39:38;;;;;;;;;;;6.50;99.90;;;5.41;100.00;96740.50;10492660;28;1918;-74
2021/11/05 23:44:41;;;;;;;;;;;6.50;99.90;;;5.33;100.00;96740.75;10490514;28;1292;-74